Terminal Aerodrome Forecast
Issued by NWS Milwaukee/Sullivan, WI

Current Version | Previous Version | Text Only | Print | Product List | Glossary On
Versions: 1 2 3 4 5 6 7 8 9 10 11 12 13 14 15 16 17 18 19 20 21 22 23 24 25 26 27 28 29 30
000
FTUS43 KMKX 011744
TAFMSN
TAF
KMSN 011744Z 0118/0218 06010G18KT P6SM OVC020
     FM012300 05009KT P6SM VCSH OVC025
     FM020300 03007KT P6SM OVC040
     FM020700 03004KT P6SM FEW200
     FM021400 03008KT P6SM SCT040=

USA.gov is the U.S. government's official web portal to all federal, state and local government web resources and services.